sensor_id;sensor_type;location;lat;lon;timestamp;pressure;altitude;pressure_sealevel;temperature;humidity
63582;BME280;49727;51.078;17.066;2022-11-18T00:04:52;98946.56;;;1.42;72.00
63582;BME280;49727;51.078;17.066;2022-11-18T00:19:52;98927.25;;;1.33;72.19
63582;BME280;49727;51.078;17.066;2022-11-18T00:34:53;98935.41;;;1.30;72.15
63582;BME280;49727;51.078;17.066;2022-11-18T00:49:53;98932.53;;;1.24;72.47
63582;BME280;49727;51.078;17.066;2022-11-18T01:04:53;98926.88;;;1.18;72.05
63582;BME280;49727;51.078;17.066;2022-11-18T01:19:54;98921.34;;;1.12;72.49
63582;BME280;49727;51.078;17.066;2022-11-18T01:34:54;98918.88;;;1.10;72.46
63582;BME280;49727;51.078;17.066;2022-11-18T01:49:55;98909.09;;;1.12;72.40
63582;BME280;49727;51.078;17.066;2022-11-18T02:04:59;98904.66;;;1.03;72.27
63582;BME280;49727;51.078;17.066;2022-11-18T02:20:29;98909.34;;;0.99;72.33
63582;BME280;49727;51.078;17.066;2022-11-18T02:35:43;98924.97;;;0.91;72.16
63582;BME280;49727;51.078;17.066;2022-11-18T02:50:48;98907.03;;;0.87;72.18
63582;BME280;49727;51.078;17.066;2022-11-18T03:06:18;98895.31;;;0.81;72.62
63582;BME280;49727;51.078;17.066;2022-11-18T03:36:56;98870.91;;;0.71;72.46
63582;BME280;49727;51.078;17.066;2022-11-18T03:52:06;98872.56;;;0.72;72.56
63582;BME280;49727;51.078;17.066;2022-11-18T04:22:26;98864.56;;;0.73;72.91
63582;BME280;49727;51.078;17.066;2022-11-18T04:37:26;98856.13;;;0.70;72.83
63582;BME280;49727;51.078;17.066;2022-11-18T04:52:26;98879.34;;;0.64;72.92
63582;BME280;49727;51.078;17.066;2022-11-18T05:07:27;98879.44;;;0.53;72.93
63582;BME280;49727;51.078;17.066;2022-11-18T05:22:27;98899.03;;;0.49;72.96
63582;BME280;49727;51.078;17.066;2022-11-18T05:37:31;98921.94;;;0.37;73.20
63582;BME280;49727;51.078;17.066;2022-11-18T05:52:32;98941.19;;;0.16;72.61
63582;BME280;49727;51.078;17.066;2022-11-18T06:07:42;98959.31;;;-0.02;72.39
63582;BME280;49727;51.078;17.066;2022-11-18T06:22:43;98985.09;;;-0.07;72.51
63582;BME280;49727;51.078;17.066;2022-11-18T06:37:45;99001.03;;;-0.10;72.04
63582;BME280;49727;51.078;17.066;2022-11-18T06:52:45;99005.59;;;-0.12;72.25
63582;BME280;49727;51.078;17.066;2022-11-18T07:07:46;99025.13;;;-0.16;71.80
63582;BME280;49727;51.078;17.066;2022-11-18T07:22:46;99034.06;;;-0.19;71.77
63582;BME280;49727;51.078;17.066;2022-11-18T07:37:46;99030.66;;;-0.19;71.73
63582;BME280;49727;51.078;17.066;2022-11-18T07:52:47;99026.81;;;-0.15;71.27
63582;BME280;49727;51.078;17.066;2022-11-18T08:07:47;99024.78;;;-0.32;70.98
63582;BME280;49727;51.078;17.066;2022-11-18T08:22:48;99042.34;;;-0.23;70.85
63582;BME280;49727;51.078;17.066;2022-11-18T08:37:48;99030.06;;;-0.23;70.04
63582;BME280;49727;51.078;17.066;2022-11-18T08:52:48;99037.88;;;-0.02;69.32
63582;BME280;49727;51.078;17.066;2022-11-18T09:07:49;99070.78;;;-0.09;68.71
63582;BME280;49727;51.078;17.066;2022-11-18T09:22:49;99075.50;;;-0.03;68.25
63582;BME280;49727;51.078;17.066;2022-11-18T09:37:50;99097.13;;;-0.01;67.79
63582;BME280;49727;51.078;17.066;2022-11-18T09:53:03;99107.88;;;-0.04;67.22
63582;BME280;49727;51.078;17.066;2022-11-18T10:08:23;99101.50;;;-0.11;66.74
63582;BME280;49727;51.078;17.066;2022-11-18T10:23:49;99109.22;;;-0.09;66.19
63582;BME280;49727;51.078;17.066;2022-11-18T10:39:15;99113.56;;;0.02;65.45
63582;BME280;49727;51.078;17.066;2022-11-18T10:54:21;99121.44;;;0.02;64.98
63582;BME280;49727;51.078;17.066;2022-11-18T11:09:26;99134.88;;;0.18;64.63
63582;BME280;49727;51.078;17.066;2022-11-18T11:24:27;99130.00;;;0.35;63.98
63582;BME280;49727;51.078;17.066;2022-11-18T11:54:58;99126.72;;;0.11;63.25
63582;BME280;49727;51.078;17.066;2022-11-18T12:40:46;99151.75;;;-0.17;63.80
63582;BME280;49727;51.078;17.066;2022-11-18T12:55:47;99157.03;;;-0.28;64.11
63582;BME280;49727;51.078;17.066;2022-11-18T13:10:54;99169.75;;;-0.56;64.22
63582;BME280;49727;51.078;17.066;2022-11-18T13:41:19;99217.97;;;-1.04;64.53
63582;BME280;49727;51.078;17.066;2022-11-18T13:56:25;99221.19;;;-1.23;64.55
63582;BME280;49727;51.078;17.066;2022-11-18T14:11:39;99239.25;;;-1.31;63.81
63582;BME280;49727;51.078;17.066;2022-11-18T14:26:40;99253.72;;;-1.27;64.18
63582;BME280;49727;51.078;17.066;2022-11-18T14:41:40;99249.94;;;-1.23;63.40
63582;BME280;49727;51.078;17.066;2022-11-18T14:56:48;99269.41;;;-1.85;62.83
63582;BME280;49727;51.078;17.066;2022-11-18T15:11:49;99277.81;;;-2.42;63.00
63582;BME280;49727;51.078;17.066;2022-11-18T15:26:49;99301.16;;;-2.90;63.87
63582;BME280;49727;51.078;17.066;2022-11-18T15:41:50;99312.75;;;-3.33;64.40
63582;BME280;49727;51.078;17.066;2022-11-18T15:56:50;99315.31;;;-3.59;65.30
63582;BME280;49727;51.078;17.066;2022-11-18T16:11:50;99339.19;;;-3.65;66.50
63582;BME280;49727;51.078;17.066;2022-11-18T16:27:09;99353.06;;;-3.79;66.84
63582;BME280;49727;51.078;17.066;2022-11-18T16:42:10;99367.81;;;-3.92;67.45
63582;BME280;49727;51.078;17.066;2022-11-18T16:57:11;99370.75;;;-3.84;68.07
63582;BME280;49727;51.078;17.066;2022-11-18T17:12:12;99384.56;;;-3.16;68.39
63582;BME280;49727;51.078;17.066;2022-11-18T17:27:12;99392.09;;;-2.60;67.93
63582;BME280;49727;51.078;17.066;2022-11-18T17:42:13;99414.66;;;-2.09;67.98
63582;BME280;49727;51.078;17.066;2022-11-18T17:57:13;99408.88;;;-1.77;67.79
63582;BME280;49727;51.078;17.066;2022-11-18T18:12:14;99419.13;;;-1.49;66.79
63582;BME280;49727;51.078;17.066;2022-11-18T18:27:33;99418.34;;;-1.39;67.10
63582;BME280;49727;51.078;17.066;2022-11-18T18:42:34;99429.41;;;-1.35;66.85
63582;BME280;49727;51.078;17.066;2022-11-18T18:57:34;99450.00;;;-1.19;66.57
63582;BME280;49727;51.078;17.066;2022-11-18T19:12:34;99450.66;;;-1.04;66.51
63582;BME280;49727;51.078;17.066;2022-11-18T19:27:45;99459.00;;;-0.88;66.60
63582;BME280;49727;51.078;17.066;2022-11-18T19:42:47;99453.34;;;-0.81;66.48
63582;BME280;49727;51.078;17.066;2022-11-18T19:57:49;99477.66;;;-0.92;66.82
63582;BME280;49727;51.078;17.066;2022-11-18T20:12:50;99481.19;;;-1.05;67.24
63582;BME280;49727;51.078;17.066;2022-11-18T20:27:52;99500.78;;;-1.10;67.31
63582;BME280;49727;51.078;17.066;2022-11-18T20:42:52;99517.53;;;-1.13;67.45
63582;BME280;49727;51.078;17.066;2022-11-18T20:58:21;99528.78;;;-1.12;67.57
63582;BME280;49727;51.078;17.066;2022-11-18T21:13:22;99532.25;;;-1.12;67.47
63582;BME280;49727;51.078;17.066;2022-11-18T21:28:40;99548.72;;;-1.23;67.11
63582;BME280;49727;51.078;17.066;2022-11-18T21:43:41;99559.19;;;-1.23;67.01
63582;BME280;49727;51.078;17.066;2022-11-18T21:58:42;99565.59;;;-1.40;67.05
63582;BME280;49727;51.078;17.066;2022-11-18T22:13:43;99572.13;;;-1.58;66.95
63582;BME280;49727;51.078;17.066;2022-11-18T22:28:43;99578.84;;;-1.80;66.71
63582;BME280;49727;51.078;17.066;2022-11-18T22:43:44;99603.38;;;-1.70;66.28
63582;BME280;49727;51.078;17.066;2022-11-18T22:58:44;99606.81;;;-1.82;66.22
63582;BME280;49727;51.078;17.066;2022-11-18T23:13:45;99609.91;;;-2.54;65.99
63582;BME280;49727;51.078;17.066;2022-11-18T23:29:03;99629.09;;;-3.24;66.56
63582;BME280;49727;51.078;17.066;2022-11-18T23:44:04;99624.69;;;-3.65;67.32
63582;BME280;49727;51.078;17.066;2022-11-18T23:59:05;99628.78;;;-4.04;67.91
